KGRB

Green Bay-Austin Straubel International Airport

Green Bay, Wisconsin, USA
METAR KGRB 171353Z 30005KT 10SM CLR M03/M07 A3016 RMK AO2 SLP222 T10281072
Observed Flight Rules
Dec-17 @ 13:53 UTC (35 minutes ago) Visual Flight Rules
Wind Visibility Clouds
300° at 5 knots 10 miles
  • Clear skies
Temperatures Readings
Current -3°C / 27°F
Dewpoint -7°C / 19°F
Humidity 74%
Altimeter 30.16" Hg
Pressure 1022.2 hPa
Elevation 208
METAR KGRB 171353Z 30005KT 10SM CLR M03/M07 A3016 RMK AO2 SLP222 T10281072
Observed Flight Rules
Dec-17 @ 13:53 UTC
(35 minutes ago)
VFR
Wind Visibility
300° at 5 knots 10 miles
Clouds
  • Clear skies
Temperature Dewpoint
-3°C / 27°F -7°C / 19°F
Humidity Altimeter Pressure
74% 30.16" Hg 1022.2 hPa